Portada
METAR-TAF:

METAR-TAF

Aeroports :

Aeroport Internacional de Kansai

Kansai, Japó

latitud: 34-25N, longitud: 135-15E, altitud: 5 m

Observació

L'informe es va fer fa 30 minuts, a les 19:00 UTC
Vent 6 kt del Est/Nord-Est
Temperatura 9°C
Humitat 71%
Pressió 1017 hPa
Visibilitat 10 km o més
Escasses núvols a una alçada de 4600 ft
Cel ennuvolat a una alçada de 5000 ft
Cel ennuvolat a una alçada de 7000 ft
pluja

METAR: RJBB 181900Z AUTO 06006KT 9999 -RA FEW046 BKN050 BKN070 09/04 Q1017 NOSIG

Hora: 04:30 (19:30 UTC)

Pronòstic

L'informe es va fer fa 2 hores i 24 minuts, a les 17:06 UTC
Pronòstic vàlid del 18 a les 18 UTC al 20 a les 00 UTC
Vent 6 kt del Est/Nord-Est
Visibilitat 10 km o més
Escasses núvols a una alçada de 2000 ft
Cel ennuvolat a una alçada de 5000 ft
pluja

TAF: RJBB 181706Z 1818/2000 06006KT 9999 -RA FEW020 BKN050

Observacions i pronòstics meteorològics de més de 4000 aeroports (METAR i TAF).

Les estacions disponibles són els punts grocs i vermells al mapa.

Posi el ratolí al punt desitjat per veure el nom de l'estació.

Feu clic per veure les observacions i els pronòstics meteorològics.

Per canviar el mapa: feu clic els botons verds amb una creu de color negre per apropar; al botó verd amb un guió per allunyar la imatge; o en les fletxes verdes per a mapes adjacents.


METAR-TAF: